sensor_id;sensor_type;location;lat;lon;timestamp;pressure;altitude;pressure_sealevel;temperature;humidity
41044;BME280;51680;49.806;18.774;2022-12-07T00:00:44;96948.06;;;4.50;90.46
41044;BME280;51680;49.806;18.774;2022-12-07T00:03:47;96946.34;;;4.49;90.93
41044;BME280;51680;49.806;18.774;2022-12-07T00:06:52;96944.50;;;4.53;91.29
41044;BME280;51680;49.806;18.774;2022-12-07T00:09:54;96943.63;;;4.52;91.37
41044;BME280;51680;49.806;18.774;2022-12-07T00:12:56;96948.38;;;4.61;90.88
41044;BME280;51680;49.806;18.774;2022-12-07T00:16:00;96926.72;;;4.64;90.61
41044;BME280;51680;49.806;18.774;2022-12-07T00:19:02;96947.53;;;4.61;90.86
41044;BME280;51680;49.806;18.774;2022-12-07T00:22:05;96936.63;;;4.73;91.27
41044;BME280;51680;49.806;18.774;2022-12-07T00:25:07;96937.59;;;4.70;90.62
41044;BME280;51680;49.806;18.774;2022-12-07T00:28:09;96938.28;;;4.74;90.85
41044;BME280;51680;49.806;18.774;2022-12-07T00:31:13;96935.47;;;4.78;90.39
41044;BME280;51680;49.806;18.774;2022-12-07T00:34:16;96937.16;;;4.79;90.39
41044;BME280;51680;49.806;18.774;2022-12-07T00:37:20;96933.25;;;4.71;90.28
41044;BME280;51680;49.806;18.774;2022-12-07T00:40:21;96930.41;;;4.77;90.39
41044;BME280;51680;49.806;18.774;2022-12-07T00:43:23;96930.56;;;4.91;90.05
41044;BME280;51680;49.806;18.774;2022-12-07T00:46:26;96939.00;;;4.94;89.82
41044;BME280;51680;49.806;18.774;2022-12-07T00:49:28;96925.00;;;4.98;89.20
41044;BME280;51680;49.806;18.774;2022-12-07T00:52:31;96935.34;;;4.98;89.92
41044;BME280;51680;49.806;18.774;2022-12-07T00:55:32;96939.59;;;4.99;89.98
41044;BME280;51680;49.806;18.774;2022-12-07T00:58:35;96928.94;;;5.05;90.19
41044;BME280;51680;49.806;18.774;2022-12-07T01:01:36;96932.00;;;5.13;89.43
41044;BME280;51680;49.806;18.774;2022-12-07T01:04:38;96925.44;;;5.23;89.44
41044;BME280;51680;49.806;18.774;2022-12-07T01:07:41;96931.38;;;5.25;88.74
41044;BME280;51680;49.806;18.774;2022-12-07T01:10:43;96927.78;;;5.28;89.16
41044;BME280;51680;49.806;18.774;2022-12-07T01:13:45;96929.78;;;5.23;88.63
41044;BME280;51680;49.806;18.774;2022-12-07T01:16:47;96925.59;;;5.20;88.90
41044;BME280;51680;49.806;18.774;2022-12-07T01:19:48;96918.69;;;5.21;89.38
41044;BME280;51680;49.806;18.774;2022-12-07T01:22:52;96920.28;;;5.23;89.46
41044;BME280;51680;49.806;18.774;2022-12-07T01:25:55;96917.84;;;5.20;89.17
41044;BME280;51680;49.806;18.774;2022-12-07T01:28:56;96920.34;;;5.22;89.46
41044;BME280;51680;49.806;18.774;2022-12-07T01:31:59;96912.50;;;5.23;89.30
41044;BME280;51680;49.806;18.774;2022-12-07T01:35:01;96910.06;;;5.20;89.33
41044;BME280;51680;49.806;18.774;2022-12-07T01:38:04;96906.56;;;5.21;89.67
41044;BME280;51680;49.806;18.774;2022-12-07T01:41:06;96901.91;;;5.28;89.34
41044;BME280;51680;49.806;18.774;2022-12-07T01:44:20;96903.50;;;5.30;88.88
41044;BME280;51680;49.806;18.774;2022-12-07T01:47:22;96904.16;;;5.18;89.09
41044;BME280;51680;49.806;18.774;2022-12-07T01:50:26;96890.75;;;5.27;89.30
41044;BME280;51680;49.806;18.774;2022-12-07T01:53:30;96902.59;;;5.31;88.90
41044;BME280;51680;49.806;18.774;2022-12-07T01:56:33;96893.41;;;5.26;89.14
41044;BME280;51680;49.806;18.774;2022-12-07T01:59:35;96904.44;;;5.29;89.01
41044;BME280;51680;49.806;18.774;2022-12-07T02:02:42;96903.22;;;5.36;89.59
41044;BME280;51680;49.806;18.774;2022-12-07T02:05:46;96903.22;;;5.36;89.32
41044;BME280;51680;49.806;18.774;2022-12-07T02:08:50;96909.47;;;5.32;88.80
41044;BME280;51680;49.806;18.774;2022-12-07T02:11:53;96908.00;;;5.27;89.20
41044;BME280;51680;49.806;18.774;2022-12-07T02:14:56;96907.59;;;5.02;90.04
41044;BME280;51680;49.806;18.774;2022-12-07T02:18:02;96903.56;;;5.13;89.62
41044;BME280;51680;49.806;18.774;2022-12-07T02:21:11;96903.47;;;5.15;89.84
41044;BME280;51680;49.806;18.774;2022-12-07T02:24:27;96901.72;;;5.15;89.78
41044;BME280;51680;49.806;18.774;2022-12-07T02:27:43;96899.59;;;5.23;89.26
41044;BME280;51680;49.806;18.774;2022-12-07T02:30:49;96898.81;;;5.21;89.07
41044;BME280;51680;49.806;18.774;2022-12-07T02:34:01;96899.41;;;5.26;89.10
41044;BME280;51680;49.806;18.774;2022-12-07T02:37:12;96895.94;;;5.27;88.87
41044;BME280;51680;49.806;18.774;2022-12-07T02:40:22;96901.91;;;5.28;89.38
41044;BME280;51680;49.806;18.774;2022-12-07T02:43:28;96898.00;;;5.21;89.59
41044;BME280;51680;49.806;18.774;2022-12-07T02:46:37;96891.34;;;5.15;88.99
41044;BME280;51680;49.806;18.774;2022-12-07T02:49:41;96885.38;;;5.15;89.70
41044;BME280;51680;49.806;18.774;2022-12-07T02:52:43;96895.19;;;5.08;89.29
41044;BME280;51680;49.806;18.774;2022-12-07T02:55:45;96890.63;;;5.13;89.35
41044;BME280;51680;49.806;18.774;2022-12-07T02:58:54;96885.28;;;5.16;88.95
41044;BME280;51680;49.806;18.774;2022-12-07T03:02:11;96893.28;;;5.12;89.27
41044;BME280;51680;49.806;18.774;2022-12-07T03:05:40;96896.59;;;5.14;89.44
41044;BME280;51680;49.806;18.774;2022-12-07T03:08:51;96895.78;;;5.13;89.50
41044;BME280;51680;49.806;18.774;2022-12-07T03:12:01;96898.53;;;5.10;88.86
41044;BME280;51680;49.806;18.774;2022-12-07T03:15:13;96892.28;;;5.14;89.21
41044;BME280;51680;49.806;18.774;2022-12-07T03:18:20;96890.44;;;5.16;89.30
41044;BME280;51680;49.806;18.774;2022-12-07T03:21:26;96886.78;;;5.20;89.17
41044;BME280;51680;49.806;18.774;2022-12-07T03:24:34;96890.28;;;5.19;89.43
41044;BME280;51680;49.806;18.774;2022-12-07T03:27:40;96890.44;;;5.16;89.11
41044;BME280;51680;49.806;18.774;2022-12-07T03:30:47;96885.97;;;5.20;89.39
41044;BME280;51680;49.806;18.774;2022-12-07T03:33:56;96880.94;;;5.17;89.04
41044;BME280;51680;49.806;18.774;2022-12-07T03:37:03;96892.28;;;5.14;89.45
41044;BME280;51680;49.806;18.774;2022-12-07T03:40:11;96883.59;;;5.15;88.73
41044;BME280;51680;49.806;18.774;2022-12-07T03:43:14;96887.63;;;5.21;88.74
41044;BME280;51680;49.806;18.774;2022-12-07T03:46:20;96883.22;;;5.23;88.92
41044;BME280;51680;49.806;18.774;2022-12-07T03:49:31;96885.44;;;5.13;88.88
41044;BME280;51680;49.806;18.774;2022-12-07T03:52:38;96886.78;;;5.20;89.08
41044;BME280;51680;49.806;18.774;2022-12-07T03:55:43;96887.56;;;5.22;88.68
41044;BME280;51680;49.806;18.774;2022-12-07T03:58:47;96884.97;;;5.22;88.97
41044;BME280;51680;49.806;18.774;2022-12-07T04:01:52;96883.13;;;5.24;88.61
41044;BME280;51680;49.806;18.774;2022-12-07T04:04:55;96875.22;;;5.27;88.77
41044;BME280;51680;49.806;18.774;2022-12-07T04:07:57;96880.31;;;5.29;88.45
41044;BME280;51680;49.806;18.774;2022-12-07T04:10:59;96884.00;;;5.25;88.04
41044;BME280;51680;49.806;18.774;2022-12-07T04:14:01;96880.88;;;5.18;88.03
41044;BME280;51680;49.806;18.774;2022-12-07T04:17:21;96885.28;;;5.16;88.88
41044;BME280;51680;49.806;18.774;2022-12-07T04:20:24;96888.47;;;5.21;88.75
41044;BME280;51680;49.806;18.774;2022-12-07T04:23:26;96883.28;;;5.21;88.76
41044;BME280;51680;49.806;18.774;2022-12-07T04:26:27;96880.41;;;5.10;88.20
41044;BME280;51680;49.806;18.774;2022-12-07T04:29:29;96882.25;;;5.08;89.13
41044;BME280;51680;49.806;18.774;2022-12-07T04:32:31;96884.06;;;5.06;88.88
41044;BME280;51680;49.806;18.774;2022-12-07T04:35:34;96887.72;;;5.02;89.32
41044;BME280;51680;49.806;18.774;2022-12-07T04:38:36;96888.31;;;5.07;89.49
41044;BME280;51680;49.806;18.774;2022-12-07T04:41:37;96887.44;;;5.08;88.90
41044;BME280;51680;49.806;18.774;2022-12-07T04:44:39;96889.91;;;5.10;89.09
41044;BME280;51680;49.806;18.774;2022-12-07T04:47:41;96885.44;;;5.13;88.34
41044;BME280;51680;49.806;18.774;2022-12-07T04:50:44;96887.84;;;5.16;88.30
41044;BME280;51680;49.806;18.774;2022-12-07T04:53:49;96882.53;;;5.19;88.63
41044;BME280;51680;49.806;18.774;2022-12-07T04:56:51;96894.13;;;5.12;88.58
41044;BME280;51680;49.806;18.774;2022-12-07T04:59:53;96893.34;;;5.10;88.91
41044;BME280;51680;49.806;18.774;2022-12-07T05:02:55;96888.41;;;5.06;88.37
41044;BME280;51680;49.806;18.774;2022-12-07T05:05:58;96889.91;;;5.10;88.32
41044;BME280;51680;49.806;18.774;2022-12-07T05:09:00;96896.78;;;5.11;88.38
41044;BME280;51680;49.806;18.774;2022-12-07T05:12:03;96885.59;;;5.10;88.21
41044;BME280;51680;49.806;18.774;2022-12-07T05:15:05;96886.56;;;5.08;87.96
41044;BME280;51680;49.806;18.774;2022-12-07T05:18:07;96891.69;;;5.09;88.68
41044;BME280;51680;49.806;18.774;2022-12-07T05:21:10;96891.69;;;5.09;88.69
41044;BME280;51680;49.806;18.774;2022-12-07T05:24:13;96892.59;;;5.08;88.48
41044;BME280;51680;49.806;18.774;2022-12-07T05:27:15;96887.56;;;5.05;88.67
41044;BME280;51680;49.806;18.774;2022-12-07T05:30:17;96888.56;;;5.03;88.11
41044;BME280;51680;49.806;18.774;2022-12-07T05:33:19;96894.78;;;4.99;88.44
41044;BME280;51680;49.806;18.774;2022-12-07T05:36:22;96895.97;;;4.93;88.74
41044;BME280;51680;49.806;18.774;2022-12-07T05:39:24;96904.38;;;4.97;88.67
41044;BME280;51680;49.806;18.774;2022-12-07T05:42:26;96902.47;;;5.00;88.23
41044;BME280;51680;49.806;18.774;2022-12-07T05:45:28;96905.22;;;4.97;88.58
41044;BME280;51680;49.806;18.774;2022-12-07T05:48:30;96896.47;;;5.00;88.41
41044;BME280;51680;49.806;18.774;2022-12-07T05:51:33;96898.16;;;5.01;88.06
41044;BME280;51680;49.806;18.774;2022-12-07T05:54:35;96896.38;;;5.01;88.06
41044;BME280;51680;49.806;18.774;2022-12-07T05:57:36;96909.31;;;5.01;88.60
41044;BME280;51680;49.806;18.774;2022-12-07T06:00:38;96902.41;;;5.02;88.47
41044;BME280;51680;49.806;18.774;2022-12-07T06:03:39;96903.41;;;4.99;87.88
41044;BME280;51680;49.806;18.774;2022-12-07T06:07:00;96905.06;;;5.00;88.02
41044;BME280;51680;49.806;18.774;2022-12-07T06:10:03;96901.88;;;4.95;88.13
41044;BME280;51680;49.806;18.774;2022-12-07T06:13:05;96905.38;;;4.94;88.27
41044;BME280;51680;49.806;18.774;2022-12-07T06:16:06;96909.38;;;5.00;88.88
41044;BME280;51680;49.806;18.774;2022-12-07T06:19:08;96902.16;;;5.06;87.92
41044;BME280;51680;49.806;18.774;2022-12-07T06:22:12;96908.94;;;5.09;87.96
41044;BME280;51680;49.806;18.774;2022-12-07T06:25:13;96918.28;;;5.11;87.94
41044;BME280;51680;49.806;18.774;2022-12-07T06:28:15;96913.13;;;5.11;87.82
41044;BME280;51680;49.806;18.774;2022-12-07T06:31:17;96920.28;;;5.06;88.03
41044;BME280;51680;49.806;18.774;2022-12-07T06:34:20;96920.94;;;5.10;87.75
41044;BME280;51680;49.806;18.774;2022-12-07T06:37:24;96927.56;;;5.15;88.32
41044;BME280;51680;49.806;18.774;2022-12-07T06:40:26;96917.75;;;5.22;87.43
41044;BME280;51680;49.806;18.774;2022-12-07T06:43:28;96918.44;;;5.25;87.36
41044;BME280;51680;49.806;18.774;2022-12-07T06:46:29;96913.56;;;5.19;87.35
41044;BME280;51680;49.806;18.774;2022-12-07T06:49:31;96926.84;;;5.13;87.56
41044;BME280;51680;49.806;18.774;2022-12-07T06:52:34;96926.66;;;5.16;87.80
41044;BME280;51680;49.806;18.774;2022-12-07T06:55:36;96928.63;;;5.11;87.44
41044;BME280;51680;49.806;18.774;2022-12-07T06:58:39;96941.28;;;5.00;87.53
41044;BME280;51680;49.806;18.774;2022-12-07T07:01:41;96940.53;;;4.98;87.46
41044;BME280;51680;49.806;18.774;2022-12-07T07:04:43;96934.56;;;4.96;87.44
41044;BME280;51680;49.806;18.774;2022-12-07T07:07:46;96943.56;;;4.89;87.79
41044;BME280;51680;49.806;18.774;2022-12-07T07:10:48;96936.69;;;4.88;88.13
41044;BME280;51680;49.806;18.774;2022-12-07T07:13:50;96935.50;;;4.95;87.42
41044;BME280;51680;49.806;18.774;2022-12-07T07:16:51;96944.09;;;4.96;87.48
41044;BME280;51680;49.806;18.774;2022-12-07T07:19:53;96944.38;;;4.90;87.27
41044;BME280;51680;49.806;18.774;2022-12-07T07:22:56;96946.50;;;4.82;87.79
41044;BME280;51680;49.806;18.774;2022-12-07T07:25:58;96950.84;;;4.81;87.86
41044;BME280;51680;49.806;18.774;2022-12-07T07:29:00;96952.50;;;4.82;87.98
41044;BME280;51680;49.806;18.774;2022-12-07T07:32:01;96952.81;;;4.76;88.03
41044;BME280;51680;49.806;18.774;2022-12-07T07:35:04;96950.28;;;4.75;87.96
41044;BME280;51680;49.806;18.774;2022-12-07T07:38:08;96955.69;;;4.70;88.36
41044;BME280;51680;49.806;18.774;2022-12-07T07:41:09;96955.91;;;4.66;87.98
41044;BME280;51680;49.806;18.774;2022-12-07T07:44:11;96958.72;;;4.61;87.89
41044;BME280;51680;49.806;18.774;2022-12-07T07:47:13;96960.38;;;4.62;88.72
41044;BME280;51680;49.806;18.774;2022-12-07T07:50:16;96953.25;;;4.67;87.96
41044;BME280;51680;49.806;18.774;2022-12-07T07:53:19;96963.09;;;4.78;88.37
41044;BME280;51680;49.806;18.774;2022-12-07T07:56:21;96963.16;;;4.76;88.38
41044;BME280;51680;49.806;18.774;2022-12-07T07:59:23;96966.47;;;4.78;87.59
41044;BME280;51680;49.806;18.774;2022-12-07T08:02:25;96968.00;;;4.82;87.70
41044;BME280;51680;49.806;18.774;2022-12-07T08:05:29;96959.50;;;4.80;87.67
41044;BME280;51680;49.806;18.774;2022-12-07T08:08:33;96970.53;;;4.84;87.85
41044;BME280;51680;49.806;18.774;2022-12-07T08:11:34;96962.03;;;4.82;87.67
41044;BME280;51680;49.806;18.774;2022-12-07T08:14:37;96970.00;;;4.77;87.48
41044;BME280;51680;49.806;18.774;2022-12-07T08:21:30;96970.91;;;4.76;88.02
41044;BME280;51680;49.806;18.774;2022-12-07T08:24:34;96966.09;;;4.69;87.51
41044;BME280;51680;49.806;18.774;2022-12-07T08:27:36;96973.00;;;4.68;87.93
41044;BME280;51680;49.806;18.774;2022-12-07T08:30:38;96965.19;;;4.70;87.95
41044;BME280;51680;49.806;18.774;2022-12-07T08:33:40;96971.97;;;4.72;87.54
41044;BME280;51680;49.806;18.774;2022-12-07T08:36:42;96972.56;;;4.77;88.33
41044;BME280;51680;49.806;18.774;2022-12-07T08:39:45;96978.22;;;4.85;88.11
41044;BME280;51680;49.806;18.774;2022-12-07T08:42:51;96975.19;;;4.94;87.57
41044;BME280;51680;49.806;18.774;2022-12-07T08:46:06;96988.75;;;4.99;86.69
41044;BME280;51680;49.806;18.774;2022-12-07T08:49:11;96982.16;;;4.92;87.24
41044;BME280;51680;49.806;18.774;2022-12-07T08:52:13;96983.31;;;4.87;87.59
41044;BME280;51680;49.806;18.774;2022-12-07T08:55:17;96980.88;;;4.84;87.38
41044;BME280;51680;49.806;18.774;2022-12-07T08:58:18;96965.28;;;4.85;87.67
41044;BME280;51680;49.806;18.774;2022-12-07T09:01:21;96983.22;;;4.88;87.55
41044;BME280;51680;49.806;18.774;2022-12-07T09:04:22;96985.22;;;5.00;87.24
41044;BME280;51680;49.806;18.774;2022-12-07T09:07:25;96970.34;;;5.05;87.13
41044;BME280;51680;49.806;18.774;2022-12-07T09:10:29;96968.81;;;5.01;86.26
41044;BME280;51680;49.806;18.774;2022-12-07T09:13:30;96964.09;;;5.09;87.10
41044;BME280;51680;49.806;18.774;2022-12-07T09:16:32;96969.13;;;5.12;86.64
41044;BME280;51680;49.806;18.774;2022-12-07T09:19:34;96963.31;;;5.07;87.05
41044;BME280;51680;49.806;18.774;2022-12-07T09:22:36;96964.47;;;5.02;86.79
41044;BME280;51680;49.806;18.774;2022-12-07T09:25:39;96959.69;;;5.11;86.50
41044;BME280;51680;49.806;18.774;2022-12-07T09:28:41;96951.78;;;5.14;86.42
41044;BME280;51680;49.806;18.774;2022-12-07T09:31:43;96956.03;;;5.15;86.32
41044;BME280;51680;49.806;18.774;2022-12-07T09:34:45;96953.38;;;5.17;86.12
41044;BME280;51680;49.806;18.774;2022-12-07T09:37:47;96953.91;;;5.23;86.50
41044;BME280;51680;49.806;18.774;2022-12-07T09:40:50;96951.38;;;5.22;85.75
41044;BME280;51680;49.806;18.774;2022-12-07T09:43:52;96943.63;;;5.22;85.57
41044;BME280;51680;49.806;18.774;2022-12-07T09:46:58;96946.00;;;5.09;85.54
41044;BME280;51680;49.806;18.774;2022-12-07T09:50:03;96943.09;;;5.15;85.80
41044;BME280;51680;49.806;18.774;2022-12-07T09:53:08;96940.19;;;5.21;85.40
41044;BME280;51680;49.806;18.774;2022-12-07T09:56:14;96934.75;;;5.27;85.12
41044;BME280;51680;49.806;18.774;2022-12-07T09:59:18;96924.00;;;5.35;85.46
41044;BME280;51680;49.806;18.774;2022-12-07T10:02:35;96914.78;;;5.46;84.92
41044;BME280;51680;49.806;18.774;2022-12-07T10:05:41;96917.31;;;5.63;84.48
41044;BME280;51680;49.806;18.774;2022-12-07T10:08:44;96915.09;;;5.73;84.31
41044;BME280;51680;49.806;18.774;2022-12-07T10:12:01;96908.72;;;5.78;82.36
41044;BME280;51680;49.806;18.774;2022-12-07T10:15:04;96912.72;;;5.85;82.31
41044;BME280;51680;49.806;18.774;2022-12-07T10:18:17;96897.19;;;5.85;81.04
41044;BME280;51680;49.806;18.774;2022-12-07T10:21:21;96900.22;;;5.76;79.97
41044;BME280;51680;49.806;18.774;2022-12-07T10:24:24;96898.03;;;6.01;82.17
41044;BME280;51680;49.806;18.774;2022-12-07T10:27:30;96884.31;;;6.15;81.13
41044;BME280;51680;49.806;18.774;2022-12-07T10:30:34;96888.84;;;6.27;80.29
41044;BME280;51680;49.806;18.774;2022-12-07T10:33:52;96874.78;;;6.31;80.14
41044;BME280;51680;49.806;18.774;2022-12-07T10:37:12;96870.25;;;6.34;79.27
41044;BME280;51680;49.806;18.774;2022-12-07T10:40:28;96864.09;;;6.21;79.07
41044;BME280;51680;49.806;18.774;2022-12-07T10:43:32;96862.50;;;6.34;78.94
41044;BME280;51680;49.806;18.774;2022-12-07T10:50:28;96872.00;;;7.08;77.53
41044;BME280;51680;49.806;18.774;2022-12-07T10:53:51;96855.69;;;7.06;75.33
41044;BME280;51680;49.806;18.774;2022-12-07T10:57:03;96858.22;;;6.78;76.88
41044;BME280;51680;49.806;18.774;2022-12-07T11:00:16;96858.00;;;6.67;77.58
41044;BME280;51680;49.806;18.774;2022-12-07T11:03:29;96859.75;;;6.37;78.09
41044;BME280;51680;49.806;18.774;2022-12-07T11:06:37;96864.16;;;6.35;79.01
41044;BME280;51680;49.806;18.774;2022-12-07T11:09:55;96854.72;;;6.19;78.25
41044;BME280;51680;49.806;18.774;2022-12-07T11:13:16;96877.22;;;6.18;78.43
41044;BME280;51680;49.806;18.774;2022-12-07T11:16:28;96861.91;;;6.14;79.75
41044;BME280;51680;49.806;18.774;2022-12-07T11:19:50;96861.41;;;6.07;79.55
41044;BME280;51680;49.806;18.774;2022-12-07T11:23:02;96867.53;;;6.06;80.11
41044;BME280;51680;49.806;18.774;2022-12-07T11:26:09;96877.28;;;6.01;80.49
41044;BME280;51680;49.806;18.774;2022-12-07T11:29:25;96865.28;;;6.00;80.46
41044;BME280;51680;49.806;18.774;2022-12-07T11:32:46;96858.00;;;5.91;81.22
41044;BME280;51680;49.806;18.774;2022-12-07T11:36:00;96857.03;;;5.77;81.23
41044;BME280;51680;49.806;18.774;2022-12-07T11:39:10;96845.69;;;5.79;81.85
41044;BME280;51680;49.806;18.774;2022-12-07T11:42:20;96848.56;;;5.90;82.00
41044;BME280;51680;49.806;18.774;2022-12-07T11:45:26;96852.75;;;6.08;82.09
41044;BME280;51680;49.806;18.774;2022-12-07T11:48:33;96838.03;;;6.09;80.45
41044;BME280;51680;49.806;18.774;2022-12-07T11:51:37;96832.19;;;6.05;81.08
41044;BME280;51680;49.806;18.774;2022-12-07T11:54:40;96835.84;;;6.01;80.25
41044;BME280;51680;49.806;18.774;2022-12-07T11:57:45;96834.78;;;6.05;80.32
41044;BME280;51680;49.806;18.774;2022-12-07T12:00:53;96833.84;;;6.06;79.89
41044;BME280;51680;49.806;18.774;2022-12-07T12:04:05;96829.50;;;6.07;79.11
41044;BME280;51680;49.806;18.774;2022-12-07T12:07:13;96833.69;;;6.09;78.64
41044;BME280;51680;49.806;18.774;2022-12-07T12:10:22;96829.66;;;6.19;78.52
41044;BME280;51680;49.806;18.774;2022-12-07T12:13:50;96828.00;;;6.18;76.40
41044;BME280;51680;49.806;18.774;2022-12-07T12:17:17;96831.69;;;6.14;76.98
41044;BME280;51680;49.806;18.774;2022-12-07T12:20:26;96837.50;;;6.18;77.96
41044;BME280;51680;49.806;18.774;2022-12-07T12:23:37;96843.19;;;6.24;77.93
41044;BME280;51680;49.806;18.774;2022-12-07T12:26:49;96840.03;;;6.19;77.79
41044;BME280;51680;49.806;18.774;2022-12-07T12:29:54;96838.69;;;6.12;77.68
41044;BME280;51680;49.806;18.774;2022-12-07T12:33:03;96843.38;;;6.06;78.17
41044;BME280;51680;49.806;18.774;2022-12-07T12:36:30;96847.88;;;6.02;76.30
41044;BME280;51680;49.806;18.774;2022-12-07T12:43:52;96849.56;;;6.03;77.33
41044;BME280;51680;49.806;18.774;2022-12-07T12:46:55;96856.91;;;6.11;77.88
41044;BME280;51680;49.806;18.774;2022-12-07T12:50:15;96841.53;;;6.08;76.76
41044;BME280;51680;49.806;18.774;2022-12-07T12:53:22;96846.06;;;6.04;77.66
41044;BME280;51680;49.806;18.774;2022-12-07T12:56:35;96848.66;;;6.04;77.81
41044;BME280;51680;49.806;18.774;2022-12-07T12:59:56;96832.53;;;5.99;76.72
41044;BME280;51680;49.806;18.774;2022-12-07T13:02:59;96841.03;;;6.01;78.40
41044;BME280;51680;49.806;18.774;2022-12-07T13:06:17;96833.59;;;5.95;77.62
41044;BME280;51680;49.806;18.774;2022-12-07T13:09:23;96841.13;;;5.84;77.53
41044;BME280;51680;49.806;18.774;2022-12-07T13:12:26;96835.81;;;5.70;77.68
41044;BME280;51680;49.806;18.774;2022-12-07T13:15:35;96833.91;;;5.74;77.76
41044;BME280;51680;49.806;18.774;2022-12-07T13:18:38;96845.53;;;5.82;78.44
41044;BME280;51680;49.806;18.774;2022-12-07T13:21:42;96833.59;;;5.95;78.95
41044;BME280;51680;49.806;18.774;2022-12-07T13:24:46;96842.13;;;5.97;77.85
41044;BME280;51680;49.806;18.774;2022-12-07T13:27:54;96842.59;;;5.88;76.87
41044;BME280;51680;49.806;18.774;2022-12-07T13:31:04;96844.31;;;5.89;78.02
41044;BME280;51680;49.806;18.774;2022-12-07T13:34:32;96850.06;;;5.94;76.91
41044;BME280;51680;49.806;18.774;2022-12-07T13:37:33;96849.81;;;5.99;77.58
41044;BME280;51680;49.806;18.774;2022-12-07T13:40:35;96850.97;;;5.93;77.22
41044;BME280;51680;49.806;18.774;2022-12-07T13:43:46;96853.25;;;5.99;76.81
41044;BME280;51680;49.806;18.774;2022-12-07T13:46:59;96848.22;;;5.96;76.83
41044;BME280;51680;49.806;18.774;2022-12-07T13:50:22;96861.31;;;5.93;76.59
41044;BME280;51680;49.806;18.774;2022-12-07T13:53:24;96865.50;;;5.96;77.77
41044;BME280;51680;49.806;18.774;2022-12-07T13:56:35;96861.25;;;5.95;77.66
41044;BME280;51680;49.806;18.774;2022-12-07T13:59:37;96865.44;;;5.97;78.04
41044;BME280;51680;49.806;18.774;2022-12-07T14:02:55;96856.25;;;5.92;77.25
41044;BME280;51680;49.806;18.774;2022-12-07T14:06:14;96863.91;;;5.78;76.64
41044;BME280;51680;49.806;18.774;2022-12-07T14:09:19;96865.78;;;5.74;77.75
41044;BME280;51680;49.806;18.774;2022-12-07T14:12:21;96864.72;;;5.78;78.43
41044;BME280;51680;49.806;18.774;2022-12-07T14:15:25;96866.41;;;5.79;78.21
41044;BME280;51680;49.806;18.774;2022-12-07T14:18:36;96871.06;;;5.73;77.81
41044;BME280;51680;49.806;18.774;2022-12-07T14:21:39;96869.38;;;5.72;77.83
41044;BME280;51680;49.806;18.774;2022-12-07T14:24:41;96868.31;;;5.60;78.43
41044;BME280;51680;49.806;18.774;2022-12-07T14:27:49;96868.38;;;5.59;77.70
41044;BME280;51680;49.806;18.774;2022-12-07T14:30:51;96862.19;;;5.61;77.83
41044;BME280;51680;49.806;18.774;2022-12-07T14:33:58;96871.31;;;5.68;78.13
41044;BME280;51680;49.806;18.774;2022-12-07T14:37:00;96879.06;;;5.68;78.03
41044;BME280;51680;49.806;18.774;2022-12-07T14:40:02;96872.56;;;5.61;77.88
41044;BME280;51680;49.806;18.774;2022-12-07T14:43:08;96876.28;;;5.56;77.39
41044;BME280;51680;49.806;18.774;2022-12-07T14:46:10;96867.41;;;5.44;76.67
41044;BME280;51680;49.806;18.774;2022-12-07T14:49:13;96875.19;;;5.44;76.63
41044;BME280;51680;49.806;18.774;2022-12-07T14:52:17;96877.16;;;5.39;76.26
41044;BME280;51680;49.806;18.774;2022-12-07T14:55:23;96884.00;;;5.40;76.34
41044;BME280;51680;49.806;18.774;2022-12-07T14:58:25;96879.00;;;5.37;76.40
41044;BME280;51680;49.806;18.774;2022-12-07T15:01:27;96882.28;;;5.41;76.96
41044;BME280;51680;49.806;18.774;2022-12-07T15:04:30;96883.19;;;5.40;76.61
41044;BME280;51680;49.806;18.774;2022-12-07T15:07:32;96885.25;;;5.33;76.97
41044;BME280;51680;49.806;18.774;2022-12-07T15:10:34;96888.59;;;5.35;76.03
41044;BME280;51680;49.806;18.774;2022-12-07T15:13:39;96887.53;;;5.39;76.16
41044;BME280;51680;49.806;18.774;2022-12-07T15:16:58;96887.69;;;5.36;76.08
41044;BME280;51680;49.806;18.774;2022-12-07T15:20:01;96893.53;;;5.40;76.01
41044;BME280;51680;49.806;18.774;2022-12-07T15:23:03;96888.50;;;5.37;75.54
41044;BME280;51680;49.806;18.774;2022-12-07T15:26:04;96879.31;;;5.31;75.21
41044;BME280;51680;49.806;18.774;2022-12-07T15:29:07;96881.00;;;5.32;75.62
41044;BME280;51680;49.806;18.774;2022-12-07T15:32:09;96882.81;;;5.30;74.81
41044;BME280;51680;49.806;18.774;2022-12-07T15:35:12;96882.22;;;5.25;75.18
41044;BME280;51680;49.806;18.774;2022-12-07T15:38:14;96889.56;;;5.17;75.25
41044;BME280;51680;49.806;18.774;2022-12-07T15:41:15;96883.47;;;5.18;75.02
41044;BME280;51680;49.806;18.774;2022-12-07T15:44:17;96886.78;;;5.20;75.23
41044;BME280;51680;49.806;18.774;2022-12-07T15:47:38;96902.31;;;5.20;75.19
41044;BME280;51680;49.806;18.774;2022-12-07T15:50:41;96891.75;;;5.08;73.19
41044;BME280;51680;49.806;18.774;2022-12-07T15:53:43;96889.03;;;5.11;74.88
41044;BME280;51680;49.806;18.774;2022-12-07T15:56:45;96901.72;;;5.15;75.40
41044;BME280;51680;49.806;18.774;2022-12-07T15:59:47;96901.09;;;5.10;74.82
41044;BME280;51680;49.806;18.774;2022-12-07T16:02:48;96902.03;;;5.09;74.82
41044;BME280;51680;49.806;18.774;2022-12-07T16:05:52;96896.84;;;5.09;75.06
41044;BME280;51680;49.806;18.774;2022-12-07T16:08:54;96912.38;;;5.09;75.56
41044;BME280;51680;49.806;18.774;2022-12-07T16:11:56;96906.13;;;5.13;75.35
41044;BME280;51680;49.806;18.774;2022-12-07T16:14:58;96905.16;;;5.16;75.22
41044;BME280;51680;49.806;18.774;2022-12-07T16:17:59;96912.44;;;5.08;75.30
41044;BME280;51680;49.806;18.774;2022-12-07T16:21:03;96911.44;;;5.10;75.54
41044;BME280;51680;49.806;18.774;2022-12-07T16:24:05;96905.16;;;5.16;75.99
41044;BME280;51680;49.806;18.774;2022-12-07T16:27:07;96908.34;;;5.21;75.99
41044;BME280;51680;49.806;18.774;2022-12-07T16:30:11;96901.19;;;5.09;75.51
41044;BME280;51680;49.806;18.774;2022-12-07T16:33:13;96901.41;;;5.04;75.02